METAR AND TAF INFORMATION
METAR FOR KIAH
KIAH 270453Z 19009G17KT 10SM BKN018 22/18 A2990 RMK AO2 SLP123 T02170178
KIAH 270353Z 19008G16KT 160V220 10SM OVC017 22/18 A2989 RMK AO2 SLP123 T02170178
KIAH 270253Z 18010G17KT 10SM BKN017 BKN250 22/18 A2988 RMK AO2 SLP119 T02170178 53007
KIAH 270216Z 18010KT 10SM BKN017 BKN250 22/18 A2988 RMK AO2 T02170183
KIAH 270520Z 2706/2812 18011KT P6SM BKN010
FM271500 20014G25KT P6SM SCT015 BKN025
FM272000 19017G27KT P6SM SCT025
FM280300 19010KT P6SM OVC020

 AIRPORT MAP

 RUNWAY INFORMATION
Runway 08L Runway length 9000 ft Runway width 150 ft
Runway elevation 92 ft Runway displaced threshold 0 ft Runway heading 90
Runway 26R Runway length 9000 ft Runway width 150 ft
Runway elevation 95 ft Runway displaced threshold 0 ft Runway heading 270
Runway 08R Runway length 9402 ft Runway width 150 ft
Runway elevation 95 ft Runway displaced threshold 0 ft Runway heading 90
Runway 26L Runway length 9402 ft Runway width 150 ft
Runway elevation 92 ft Runway displaced threshold 0 ft Runway heading 270
Runway 09 Runway length 10000 ft Runway width 150 ft
Runway elevation 91 ft Runway displaced threshold 0 ft Runway heading 90
Runway 27 Runway length 10000 ft Runway width 150 ft
Runway elevation 84 ft Runway displaced threshold 0 ft Runway heading 270
Runway 15L Runway length 12001 ft Runway width 150 ft
Runway elevation 97 ft Runway displaced threshold 0 ft Runway heading 152
Runway 33R Runway length 12001 ft Runway width 150 ft
Runway elevation 86 ft Runway displaced threshold 0 ft Runway heading 332
Runway 15R Runway length 9999 ft Runway width 150 ft
Runway elevation 95 ft Runway displaced threshold 0 ft Runway heading 152
Runway 33L Runway length 9999 ft Runway width 150 ft
Runway elevation 88 ft Runway displaced threshold 0 ft Runway heading 332

 AIRPORT FREQUENCIES
Type APP Name APP Frequency 120.05 MHZ
Type ATIS Name ATIS Frequency 124.05 MHZ
Type CLD Name CLNC DEL Frequency 128.1 MHZ
Type DEP Name DEP Frequency 119.7 MHZ
Type DEP Name DEP Frequency 28.14 MHZ
Type GND Name GND Frequency 118.575 MHZ
Type RDO Name MONTGOMERY Frequency 122.4 MHZ
Type TWR Name TWR Frequency 120.725 MHZ
Type TWR Name TWR Frequency 29.02 MHZ
Type UNIC Name UNICOM Frequency 122.95 MHZ

 AIRPORT NEAR NAVIGATION AIDS
Type NDB Name Nixin Frequency 326 KHZ

-